sensor_id;sensor_type;location;lat;lon;timestamp;P1;durP1;ratioP1;P2;durP2;ratioP2
11835;SDS011;5977;51.972;7.640;2022-12-08T00:01:28;147.43;;;47.00;;
11835;SDS011;5977;51.972;7.640;2022-12-08T00:03:57;147.67;;;47.07;;
11835;SDS011;5977;51.972;7.640;2022-12-08T00:06:28;147.47;;;46.93;;
11835;SDS011;5977;51.972;7.640;2022-12-08T00:09:15;147.30;;;46.97;;
11835;SDS011;5977;51.972;7.640;2022-12-08T00:11:52;147.87;;;47.20;;
11835;SDS011;5977;51.972;7.640;2022-12-08T00:14:22;147.33;;;47.00;;
11835;SDS011;5977;51.972;7.640;2022-12-08T00:16:51;147.13;;;47.03;;
11835;SDS011;5977;51.972;7.640;2022-12-08T00:19:20;148.00;;;47.20;;
11835;SDS011;5977;51.972;7.640;2022-12-08T00:21:50;147.90;;;47.27;;
11835;SDS011;5977;51.972;7.640;2022-12-08T00:24:18;147.27;;;46.93;;
11835;SDS011;5977;51.972;7.640;2022-12-08T00:26:47;146.97;;;46.80;;
11835;SDS011;5977;51.972;7.640;2022-12-08T00:29:15;147.00;;;46.93;;
11835;SDS011;5977;51.972;7.640;2022-12-08T00:31:43;147.20;;;47.00;;
11835;SDS011;5977;51.972;7.640;2022-12-08T00:34:11;147.50;;;47.00;;
11835;SDS011;5977;51.972;7.640;2022-12-08T00:36:39;147.50;;;47.10;;
11835;SDS011;5977;51.972;7.640;2022-12-08T00:39:09;146.43;;;46.80;;
11835;SDS011;5977;51.972;7.640;2022-12-08T00:41:37;147.57;;;47.10;;
11835;SDS011;5977;51.972;7.640;2022-12-08T00:44:23;147.00;;;47.07;;
11835;SDS011;5977;51.972;7.640;2022-12-08T00:46:51;147.13;;;46.97;;
11835;SDS011;5977;51.972;7.640;2022-12-08T00:49:19;147.27;;;47.10;;
11835;SDS011;5977;51.972;7.640;2022-12-08T00:51:47;147.73;;;47.20;;
11835;SDS011;5977;51.972;7.640;2022-12-08T00:54:16;146.93;;;46.90;;
11835;SDS011;5977;51.972;7.640;2022-12-08T00:56:44;147.80;;;47.23;;
11835;SDS011;5977;51.972;7.640;2022-12-08T00:59:12;146.40;;;46.83;;
11835;SDS011;5977;51.972;7.640;2022-12-08T01:01:42;147.70;;;47.37;;
11835;SDS011;5977;51.972;7.640;2022-12-08T01:04:11;147.67;;;47.37;;
11835;SDS011;5977;51.972;7.640;2022-12-08T01:06:41;146.53;;;46.83;;
11835;SDS011;5977;51.972;7.640;2022-12-08T01:09:10;147.00;;;46.97;;
11835;SDS011;5977;51.972;7.640;2022-12-08T01:11:41;147.40;;;47.13;;
11835;SDS011;5977;51.972;7.640;2022-12-08T01:14:10;147.43;;;47.20;;
11835;SDS011;5977;51.972;7.640;2022-12-08T01:16:38;147.97;;;47.37;;
11835;SDS011;5977;51.972;7.640;2022-12-08T01:19:08;146.73;;;47.00;;
11835;SDS011;5977;51.972;7.640;2022-12-08T01:21:37;147.13;;;47.10;;
11835;SDS011;5977;51.972;7.640;2022-12-08T01:24:05;147.57;;;47.20;;
11835;SDS011;5977;51.972;7.640;2022-12-08T01:26:36;146.93;;;46.87;;
11835;SDS011;5977;51.972;7.640;2022-12-08T01:29:05;147.13;;;47.03;;
11835;SDS011;5977;51.972;7.640;2022-12-08T01:31:34;148.07;;;47.33;;
11835;SDS011;5977;51.972;7.640;2022-12-08T01:34:02;146.80;;;46.97;;
11835;SDS011;5977;51.972;7.640;2022-12-08T01:36:30;147.03;;;47.07;;
11835;SDS011;5977;51.972;7.640;2022-12-08T01:39:02;147.63;;;47.20;;
11835;SDS011;5977;51.972;7.640;2022-12-08T01:41:33;146.67;;;46.87;;
11835;SDS011;5977;51.972;7.640;2022-12-08T01:44:45;147.57;;;47.13;;
11835;SDS011;5977;51.972;7.640;2022-12-08T01:47:10;146.67;;;47.03;;
11835;SDS011;5977;51.972;7.640;2022-12-08T01:49:38;147.37;;;47.20;;
11835;SDS011;5977;51.972;7.640;2022-12-08T01:52:08;146.67;;;46.90;;
11835;SDS011;5977;51.972;7.640;2022-12-08T01:54:41;147.27;;;47.27;;
11835;SDS011;5977;51.972;7.640;2022-12-08T01:57:14;146.97;;;47.13;;
11835;SDS011;5977;51.972;7.640;2022-12-08T01:59:45;146.93;;;47.07;;
11835;SDS011;5977;51.972;7.640;2022-12-08T02:02:19;147.53;;;47.27;;
11835;SDS011;5977;51.972;7.640;2022-12-08T02:04:47;146.97;;;47.00;;
11835;SDS011;5977;51.972;7.640;2022-12-08T02:07:15;147.37;;;47.13;;
11835;SDS011;5977;51.972;7.640;2022-12-08T02:09:44;147.33;;;47.17;;
11835;SDS011;5977;51.972;7.640;2022-12-08T02:12:12;147.03;;;47.10;;
11835;SDS011;5977;51.972;7.640;2022-12-08T02:14:40;146.73;;;46.97;;
11835;SDS011;5977;51.972;7.640;2022-12-08T02:17:12;147.30;;;47.10;;
11835;SDS011;5977;51.972;7.640;2022-12-08T02:19:57;147.60;;;47.27;;
11835;SDS011;5977;51.972;7.640;2022-12-08T02:22:57;146.93;;;47.07;;
11835;SDS011;5977;51.972;7.640;2022-12-08T02:25:30;147.17;;;47.07;;
11835;SDS011;5977;51.972;7.640;2022-12-08T02:28:09;146.70;;;46.87;;
11835;SDS011;5977;51.972;7.640;2022-12-08T02:31:05;147.67;;;47.17;;
11835;SDS011;5977;51.972;7.640;2022-12-08T02:33:51;147.43;;;47.17;;
11835;SDS011;5977;51.972;7.640;2022-12-08T02:36:41;147.53;;;47.20;;
11835;SDS011;5977;51.972;7.640;2022-12-08T02:39:16;147.83;;;47.27;;
11835;SDS011;5977;51.972;7.640;2022-12-08T02:41:55;147.83;;;47.40;;
11835;SDS011;5977;51.972;7.640;2022-12-08T02:44:32;146.93;;;47.03;;
11835;SDS011;5977;51.972;7.640;2022-12-08T02:47:07;147.60;;;47.27;;
11835;SDS011;5977;51.972;7.640;2022-12-08T02:49:39;146.70;;;47.10;;
11835;SDS011;5977;51.972;7.640;2022-12-08T02:52:34;147.17;;;47.13;;
11835;SDS011;5977;51.972;7.640;2022-12-08T02:55:11;147.87;;;47.40;;
11835;SDS011;5977;51.972;7.640;2022-12-08T02:57:50;148.13;;;47.53;;
11835;SDS011;5977;51.972;7.640;2022-12-08T03:00:46;146.97;;;47.00;;
11835;SDS011;5977;51.972;7.640;2022-12-08T03:03:24;146.57;;;46.77;;
11835;SDS011;5977;51.972;7.640;2022-12-08T03:06:03;147.30;;;47.17;;
11835;SDS011;5977;51.972;7.640;2022-12-08T03:08:41;147.47;;;47.30;;
11835;SDS011;5977;51.972;7.640;2022-12-08T03:11:17;147.03;;;47.10;;
11835;SDS011;5977;51.972;7.640;2022-12-08T03:13:51;147.27;;;47.27;;
11835;SDS011;5977;51.972;7.640;2022-12-08T03:16:22;147.10;;;47.10;;
11835;SDS011;5977;51.972;7.640;2022-12-08T03:18:53;146.77;;;47.00;;
11835;SDS011;5977;51.972;7.640;2022-12-08T03:21:30;147.07;;;47.10;;
11835;SDS011;5977;51.972;7.640;2022-12-08T03:24:01;147.33;;;47.20;;
11835;SDS011;5977;51.972;7.640;2022-12-08T03:26:33;146.83;;;46.97;;
11835;SDS011;5977;51.972;7.640;2022-12-08T03:29:07;147.10;;;47.17;;
11835;SDS011;5977;51.972;7.640;2022-12-08T03:31:36;147.47;;;47.23;;
11835;SDS011;5977;51.972;7.640;2022-12-08T03:34:06;147.50;;;47.20;;
11835;SDS011;5977;51.972;7.640;2022-12-08T03:36:38;146.60;;;46.93;;
11835;SDS011;5977;51.972;7.640;2022-12-08T03:39:07;146.40;;;46.87;;
11835;SDS011;5977;51.972;7.640;2022-12-08T03:41:35;146.77;;;47.00;;
11835;SDS011;5977;51.972;7.640;2022-12-08T03:44:03;146.60;;;47.10;;
11835;SDS011;5977;51.972;7.640;2022-12-08T03:46:31;147.07;;;47.10;;
11835;SDS011;5977;51.972;7.640;2022-12-08T03:48:59;147.13;;;47.13;;
11835;SDS011;5977;51.972;7.640;2022-12-08T03:51:27;146.80;;;46.97;;
11835;SDS011;5977;51.972;7.640;2022-12-08T03:53:55;146.80;;;47.00;;
11835;SDS011;5977;51.972;7.640;2022-12-08T03:56:25;146.83;;;47.03;;
11835;SDS011;5977;51.972;7.640;2022-12-08T03:58:54;146.97;;;47.10;;
11835;SDS011;5977;51.972;7.640;2022-12-08T04:01:22;146.67;;;47.00;;
11835;SDS011;5977;51.972;7.640;2022-12-08T04:03:50;146.67;;;47.00;;
11835;SDS011;5977;51.972;7.640;2022-12-08T04:06:18;147.43;;;47.30;;
11835;SDS011;5977;51.972;7.640;2022-12-08T04:08:46;147.30;;;47.30;;
11835;SDS011;5977;51.972;7.640;2022-12-08T04:11:15;147.00;;;47.20;;
11835;SDS011;5977;51.972;7.640;2022-12-08T04:13:45;146.23;;;46.90;;
11835;SDS011;5977;51.972;7.640;2022-12-08T04:16:13;146.40;;;47.00;;
11835;SDS011;5977;51.972;7.640;2022-12-08T04:18:42;146.53;;;47.00;;
11835;SDS011;5977;51.972;7.640;2022-12-08T04:21:10;146.77;;;47.10;;
11835;SDS011;5977;51.972;7.640;2022-12-08T04:23:38;147.57;;;47.30;;
11835;SDS011;5977;51.972;7.640;2022-12-08T04:26:07;147.37;;;47.27;;
11835;SDS011;5977;51.972;7.640;2022-12-08T04:28:35;147.53;;;47.40;;
11835;SDS011;5977;51.972;7.640;2022-12-08T04:31:05;146.87;;;47.07;;
11835;SDS011;5977;51.972;7.640;2022-12-08T04:33:33;147.13;;;47.20;;
11835;SDS011;5977;51.972;7.640;2022-12-08T04:36:01;147.37;;;47.30;;
11835;SDS011;5977;51.972;7.640;2022-12-08T04:38:30;146.53;;;47.00;;
11835;SDS011;5977;51.972;7.640;2022-12-08T04:40:57;147.20;;;47.17;;
11835;SDS011;5977;51.972;7.640;2022-12-08T04:43:25;146.03;;;46.93;;
11835;SDS011;5977;51.972;7.640;2022-12-08T04:45:53;147.13;;;47.27;;
11835;SDS011;5977;51.972;7.640;2022-12-08T04:48:23;146.63;;;47.20;;
11835;SDS011;5977;51.972;7.640;2022-12-08T04:50:51;145.60;;;46.73;;
11835;SDS011;5977;51.972;7.640;2022-12-08T04:53:19;145.53;;;46.70;;
11835;SDS011;5977;51.972;7.640;2022-12-08T04:55:46;146.67;;;47.10;;
11835;SDS011;5977;51.972;7.640;2022-12-08T04:58:15;145.67;;;46.80;;
11835;SDS011;5977;51.972;7.640;2022-12-08T05:00:44;146.33;;;47.13;;
11835;SDS011;5977;51.972;7.640;2022-12-08T05:03:13;146.10;;;46.90;;
11835;SDS011;5977;51.972;7.640;2022-12-08T05:05:43;146.60;;;47.13;;
11835;SDS011;5977;51.972;7.640;2022-12-08T05:08:11;146.47;;;46.93;;
11835;SDS011;5977;51.972;7.640;2022-12-08T05:10:39;146.70;;;47.10;;
11835;SDS011;5977;51.972;7.640;2022-12-08T05:13:07;146.60;;;47.13;;
11835;SDS011;5977;51.972;7.640;2022-12-08T05:15:35;145.90;;;46.87;;
11835;SDS011;5977;51.972;7.640;2022-12-08T05:18:04;146.33;;;46.97;;
11835;SDS011;5977;51.972;7.640;2022-12-08T05:20:32;146.50;;;47.00;;
11835;SDS011;5977;51.972;7.640;2022-12-08T05:23:01;146.73;;;47.10;;
11835;SDS011;5977;51.972;7.640;2022-12-08T05:25:29;146.53;;;47.00;;
11835;SDS011;5977;51.972;7.640;2022-12-08T05:27:57;147.37;;;47.30;;
11835;SDS011;5977;51.972;7.640;2022-12-08T05:30:45;147.77;;;47.47;;
11835;SDS011;5977;51.972;7.640;2022-12-08T05:33:13;146.53;;;46.90;;
11835;SDS011;5977;51.972;7.640;2022-12-08T05:35:41;147.87;;;47.50;;
11835;SDS011;5977;51.972;7.640;2022-12-08T05:38:10;147.27;;;47.27;;
11835;SDS011;5977;51.972;7.640;2022-12-08T05:40:38;147.07;;;47.20;;
11835;SDS011;5977;51.972;7.640;2022-12-08T05:43:08;147.13;;;47.27;;
11835;SDS011;5977;51.972;7.640;2022-12-08T05:45:36;147.37;;;47.30;;
11835;SDS011;5977;51.972;7.640;2022-12-08T05:48:04;147.10;;;47.17;;
11835;SDS011;5977;51.972;7.640;2022-12-08T05:50:32;147.40;;;47.23;;
11835;SDS011;5977;51.972;7.640;2022-12-08T05:53:02;148.03;;;47.57;;
11835;SDS011;5977;51.972;7.640;2022-12-08T05:55:32;147.00;;;47.30;;
11835;SDS011;5977;51.972;7.640;2022-12-08T05:57:59;147.33;;;47.20;;
11835;SDS011;5977;51.972;7.640;2022-12-08T06:00:33;147.50;;;47.40;;
11835;SDS011;5977;51.972;7.640;2022-12-08T06:03:01;147.20;;;47.13;;
11835;SDS011;5977;51.972;7.640;2022-12-08T06:05:30;147.07;;;47.13;;
11835;SDS011;5977;51.972;7.640;2022-12-08T06:07:59;148.13;;;47.60;;
11835;SDS011;5977;51.972;7.640;2022-12-08T06:10:27;147.07;;;47.30;;
11835;SDS011;5977;51.972;7.640;2022-12-08T06:12:56;147.27;;;47.37;;
11835;SDS011;5977;51.972;7.640;2022-12-08T06:15:24;146.73;;;47.10;;
11835;SDS011;5977;51.972;7.640;2022-12-08T06:17:53;146.93;;;47.10;;
11835;SDS011;5977;51.972;7.640;2022-12-08T06:20:20;147.63;;;47.33;;
11835;SDS011;5977;51.972;7.640;2022-12-08T06:22:48;147.17;;;47.27;;
11835;SDS011;5977;51.972;7.640;2022-12-08T06:25:16;147.03;;;47.13;;
11835;SDS011;5977;51.972;7.640;2022-12-08T06:27:44;147.47;;;47.43;;
11835;SDS011;5977;51.972;7.640;2022-12-08T06:30:13;147.60;;;47.47;;
11835;SDS011;5977;51.972;7.640;2022-12-08T06:32:42;147.67;;;47.30;;
11835;SDS011;5977;51.972;7.640;2022-12-08T06:35:10;146.90;;;47.13;;
11835;SDS011;5977;51.972;7.640;2022-12-08T06:37:38;148.13;;;47.53;;
11835;SDS011;5977;51.972;7.640;2022-12-08T06:40:06;148.83;;;47.73;;
11835;SDS011;5977;51.972;7.640;2022-12-08T06:42:34;148.10;;;47.47;;
11835;SDS011;5977;51.972;7.640;2022-12-08T06:45:14;148.23;;;47.57;;
11835;SDS011;5977;51.972;7.640;2022-12-08T06:47:43;147.30;;;47.17;;
11835;SDS011;5977;51.972;7.640;2022-12-08T06:50:12;148.07;;;47.57;;
11835;SDS011;5977;51.972;7.640;2022-12-08T06:52:40;148.23;;;47.60;;
11835;SDS011;5977;51.972;7.640;2022-12-08T06:55:23;147.83;;;47.50;;
11835;SDS011;5977;51.972;7.640;2022-12-08T06:58:11;146.93;;;47.00;;
11835;SDS011;5977;51.972;7.640;2022-12-08T07:00:41;146.93;;;47.13;;
11835;SDS011;5977;51.972;7.640;2022-12-08T07:03:10;147.23;;;47.30;;
11835;SDS011;5977;51.972;7.640;2022-12-08T07:05:39;146.87;;;47.20;;
11835;SDS011;5977;51.972;7.640;2022-12-08T07:08:07;147.27;;;47.20;;
11835;SDS011;5977;51.972;7.640;2022-12-08T07:10:36;146.77;;;47.07;;
11835;SDS011;5977;51.972;7.640;2022-12-08T07:13:04;147.13;;;47.30;;
11835;SDS011;5977;51.972;7.640;2022-12-08T07:15:32;147.17;;;47.33;;
11835;SDS011;5977;51.972;7.640;2022-12-08T07:18:01;147.70;;;47.47;;
11835;SDS011;5977;51.972;7.640;2022-12-08T07:20:29;147.33;;;47.23;;
11835;SDS011;5977;51.972;7.640;2022-12-08T07:22:57;147.47;;;47.33;;
11835;SDS011;5977;51.972;7.640;2022-12-08T07:25:25;148.43;;;47.67;;
11835;SDS011;5977;51.972;7.640;2022-12-08T07:27:53;147.47;;;47.30;;
11835;SDS011;5977;51.972;7.640;2022-12-08T07:30:20;147.90;;;47.40;;
11835;SDS011;5977;51.972;7.640;2022-12-08T07:32:48;147.13;;;47.20;;
11835;SDS011;5977;51.972;7.640;2022-12-08T07:35:18;147.70;;;47.37;;
11835;SDS011;5977;51.972;7.640;2022-12-08T07:37:45;147.53;;;47.37;;
11835;SDS011;5977;51.972;7.640;2022-12-08T07:40:13;146.60;;;46.93;;
11835;SDS011;5977;51.972;7.640;2022-12-08T07:42:41;147.47;;;47.30;;
11835;SDS011;5977;51.972;7.640;2022-12-08T07:45:09;147.53;;;47.40;;
11835;SDS011;5977;51.972;7.640;2022-12-08T07:47:37;147.03;;;47.03;;
11835;SDS011;5977;51.972;7.640;2022-12-08T07:50:06;147.37;;;47.27;;
11835;SDS011;5977;51.972;7.640;2022-12-08T07:52:35;147.57;;;47.37;;
11835;SDS011;5977;51.972;7.640;2022-12-08T07:55:04;147.97;;;47.67;;
11835;SDS011;5977;51.972;7.640;2022-12-08T07:57:32;147.47;;;47.27;;
11835;SDS011;5977;51.972;7.640;2022-12-08T08:00:00;147.60;;;47.27;;
11835;SDS011;5977;51.972;7.640;2022-12-08T08:02:36;147.17;;;47.40;;
11835;SDS011;5977;51.972;7.640;2022-12-08T08:05:05;147.37;;;47.30;;
11835;SDS011;5977;51.972;7.640;2022-12-08T08:07:33;147.33;;;47.30;;
11835;SDS011;5977;51.972;7.640;2022-12-08T08:10:03;147.97;;;47.47;;
11835;SDS011;5977;51.972;7.640;2022-12-08T08:12:32;147.77;;;47.40;;
11835;SDS011;5977;51.972;7.640;2022-12-08T08:15:03;149.77;;;47.97;;
11835;SDS011;5977;51.972;7.640;2022-12-08T08:17:33;151.83;;;48.33;;
11835;SDS011;5977;51.972;7.640;2022-12-08T08:20:02;153.73;;;48.67;;
11835;SDS011;5977;51.972;7.640;2022-12-08T08:22:32;155.10;;;49.13;;
11835;SDS011;5977;51.972;7.640;2022-12-08T08:25:02;155.57;;;49.27;;
11835;SDS011;5977;51.972;7.640;2022-12-08T08:27:30;156.07;;;49.27;;
11835;SDS011;5977;51.972;7.640;2022-12-08T08:29:58;156.87;;;49.50;;
11835;SDS011;5977;51.972;7.640;2022-12-08T08:32:27;156.63;;;49.47;;
11835;SDS011;5977;51.972;7.640;2022-12-08T08:34:58;157.47;;;49.67;;
11835;SDS011;5977;51.972;7.640;2022-12-08T08:37:26;157.10;;;49.43;;
11835;SDS011;5977;51.972;7.640;2022-12-08T08:39:53;157.67;;;49.70;;
11835;SDS011;5977;51.972;7.640;2022-12-08T08:42:23;158.23;;;50.00;;
11835;SDS011;5977;51.972;7.640;2022-12-08T08:44:50;157.43;;;49.67;;
11835;SDS011;5977;51.972;7.640;2022-12-08T08:47:19;157.93;;;49.80;;
11835;SDS011;5977;51.972;7.640;2022-12-08T08:49:47;158.27;;;49.80;;
11835;SDS011;5977;51.972;7.640;2022-12-08T08:52:15;159.07;;;50.17;;
11835;SDS011;5977;51.972;7.640;2022-12-08T08:54:43;157.87;;;49.70;;
11835;SDS011;5977;51.972;7.640;2022-12-08T08:57:11;158.87;;;50.10;;
11835;SDS011;5977;51.972;7.640;2022-12-08T08:59:40;159.27;;;50.27;;
11835;SDS011;5977;51.972;7.640;2022-12-08T09:02:09;158.33;;;49.93;;
11835;SDS011;5977;51.972;7.640;2022-12-08T09:04:43;158.83;;;50.23;;
11835;SDS011;5977;51.972;7.640;2022-12-08T09:07:11;159.60;;;50.43;;
11835;SDS011;5977;51.972;7.640;2022-12-08T09:09:39;159.83;;;50.43;;
11835;SDS011;5977;51.972;7.640;2022-12-08T09:12:07;159.07;;;50.30;;
11835;SDS011;5977;51.972;7.640;2022-12-08T09:14:35;159.00;;;49.93;;
11835;SDS011;5977;51.972;7.640;2022-12-08T09:17:06;159.30;;;50.20;;
11835;SDS011;5977;51.972;7.640;2022-12-08T09:19:34;158.83;;;50.10;;
11835;SDS011;5977;51.972;7.640;2022-12-08T09:22:03;159.30;;;50.27;;
11835;SDS011;5977;51.972;7.640;2022-12-08T09:24:31;159.63;;;50.47;;
11835;SDS011;5977;51.972;7.640;2022-12-08T09:26:59;159.83;;;50.50;;
11835;SDS011;5977;51.972;7.640;2022-12-08T09:29:27;159.37;;;50.30;;
11835;SDS011;5977;51.972;7.640;2022-12-08T09:32:01;158.90;;;50.20;;
11835;SDS011;5977;51.972;7.640;2022-12-08T09:34:31;159.20;;;50.20;;
11835;SDS011;5977;51.972;7.640;2022-12-08T09:36:58;159.13;;;50.13;;
11835;SDS011;5977;51.972;7.640;2022-12-08T09:39:26;158.67;;;49.97;;
11835;SDS011;5977;51.972;7.640;2022-12-08T09:41:56;159.07;;;50.17;;
11835;SDS011;5977;51.972;7.640;2022-12-08T09:47:17;159.07;;;50.13;;
11835;SDS011;5977;51.972;7.640;2022-12-08T09:49:50;158.50;;;50.00;;
11835;SDS011;5977;51.972;7.640;2022-12-08T09:52:23;159.53;;;50.17;;
11835;SDS011;5977;51.972;7.640;2022-12-08T09:54:55;158.90;;;50.07;;
11835;SDS011;5977;51.972;7.640;2022-12-08T09:57:27;158.97;;;50.07;;
11835;SDS011;5977;51.972;7.640;2022-12-08T09:59:57;159.17;;;50.13;;
11835;SDS011;5977;51.972;7.640;2022-12-08T10:02:30;159.27;;;50.23;;
11835;SDS011;5977;51.972;7.640;2022-12-08T10:04:59;159.10;;;50.20;;
11835;SDS011;5977;51.972;7.640;2022-12-08T10:07:31;159.07;;;50.23;;
11835;SDS011;5977;51.972;7.640;2022-12-08T10:10:06;159.13;;;50.30;;
11835;SDS011;5977;51.972;7.640;2022-12-08T10:12:45;158.87;;;50.03;;
11835;SDS011;5977;51.972;7.640;2022-12-08T10:15:29;159.13;;;50.20;;
11835;SDS011;5977;51.972;7.640;2022-12-08T10:18:03;158.77;;;50.00;;
11835;SDS011;5977;51.972;7.640;2022-12-08T10:20:41;159.07;;;50.00;;
11835;SDS011;5977;51.972;7.640;2022-12-08T10:23:14;159.00;;;50.10;;
11835;SDS011;5977;51.972;7.640;2022-12-08T10:25:51;158.80;;;49.97;;
11835;SDS011;5977;51.972;7.640;2022-12-08T10:28:24;159.23;;;50.03;;
11835;SDS011;5977;51.972;7.640;2022-12-08T10:30:52;159.37;;;50.17;;
11835;SDS011;5977;51.972;7.640;2022-12-08T10:33:20;159.67;;;50.37;;
11835;SDS011;5977;51.972;7.640;2022-12-08T10:35:51;159.60;;;50.37;;
11835;SDS011;5977;51.972;7.640;2022-12-08T10:38:22;158.67;;;50.03;;
11835;SDS011;5977;51.972;7.640;2022-12-08T10:40:54;159.33;;;50.17;;
11835;SDS011;5977;51.972;7.640;2022-12-08T10:43:29;159.07;;;50.17;;
11835;SDS011;5977;51.972;7.640;2022-12-08T10:46:06;160.23;;;50.63;;
11835;SDS011;5977;51.972;7.640;2022-12-08T10:48:35;159.37;;;50.27;;
11835;SDS011;5977;51.972;7.640;2022-12-08T10:51:22;160.40;;;50.77;;
11835;SDS011;5977;51.972;7.640;2022-12-08T10:53:53;160.20;;;50.47;;
11835;SDS011;5977;51.972;7.640;2022-12-08T10:56:23;159.43;;;50.00;;
11835;SDS011;5977;51.972;7.640;2022-12-08T10:59:03;159.20;;;49.97;;
11835;SDS011;5977;51.972;7.640;2022-12-08T11:01:36;159.70;;;50.20;;
11835;SDS011;5977;51.972;7.640;2022-12-08T11:04:06;159.83;;;50.30;;
11835;SDS011;5977;51.972;7.640;2022-12-08T11:06:42;159.77;;;50.20;;
11835;SDS011;5977;51.972;7.640;2022-12-08T11:12:12;159.03;;;50.17;;
11835;SDS011;5977;51.972;7.640;2022-12-08T11:14:45;159.70;;;50.37;;
11835;SDS011;5977;51.972;7.640;2022-12-08T11:17:16;159.13;;;50.00;;
11835;SDS011;5977;51.972;7.640;2022-12-08T11:19:54;158.77;;;50.00;;
11835;SDS011;5977;51.972;7.640;2022-12-08T11:22:27;158.07;;;49.77;;
11835;SDS011;5977;51.972;7.640;2022-12-08T11:24:58;158.97;;;50.10;;
11835;SDS011;5977;51.972;7.640;2022-12-08T11:27:28;159.20;;;50.10;;
11835;SDS011;5977;51.972;7.640;2022-12-08T11:29:57;159.57;;;50.00;;
11835;SDS011;5977;51.972;7.640;2022-12-08T11:32:27;159.80;;;50.30;;
11835;SDS011;5977;51.972;7.640;2022-12-08T11:34:56;158.80;;;49.87;;
11835;SDS011;5977;51.972;7.640;2022-12-08T11:37:29;160.17;;;50.50;;
11835;SDS011;5977;51.972;7.640;2022-12-08T11:40:04;160.13;;;50.40;;
11835;SDS011;5977;51.972;7.640;2022-12-08T11:42:37;159.57;;;50.10;;
11835;SDS011;5977;51.972;7.640;2022-12-08T11:45:18;160.03;;;50.30;;
11835;SDS011;5977;51.972;7.640;2022-12-08T11:47:51;159.33;;;50.03;;
11835;SDS011;5977;51.972;7.640;2022-12-08T11:50:28;159.20;;;49.87;;
11835;SDS011;5977;51.972;7.640;2022-12-08T11:53:04;159.70;;;50.10;;
11835;SDS011;5977;51.972;7.640;2022-12-08T11:55:38;158.60;;;49.77;;
11835;SDS011;5977;51.972;7.640;2022-12-08T11:58:15;159.67;;;50.07;;
11835;SDS011;5977;51.972;7.640;2022-12-08T12:00:45;159.27;;;50.07;;
11835;SDS011;5977;51.972;7.640;2022-12-08T12:03:16;159.00;;;50.03;;
11835;SDS011;5977;51.972;7.640;2022-12-08T12:09:16;159.17;;;50.07;;
11835;SDS011;5977;51.972;7.640;2022-12-08T12:11:55;159.17;;;50.07;;
11835;SDS011;5977;51.972;7.640;2022-12-08T12:14:45;158.30;;;49.73;;
11835;SDS011;5977;51.972;7.640;2022-12-08T12:17:30;158.50;;;49.80;;
11835;SDS011;5977;51.972;7.640;2022-12-08T12:20:10;159.43;;;50.17;;
11835;SDS011;5977;51.972;7.640;2022-12-08T12:22:43;159.33;;;50.13;;
11835;SDS011;5977;51.972;7.640;2022-12-08T12:25:17;158.57;;;49.93;;
11835;SDS011;5977;51.972;7.640;2022-12-08T12:27:47;159.33;;;50.07;;
11835;SDS011;5977;51.972;7.640;2022-12-08T12:30:20;159.00;;;49.93;;
11835;SDS011;5977;51.972;7.640;2022-12-08T12:32:51;159.30;;;50.30;;
11835;SDS011;5977;51.972;7.640;2022-12-08T12:35:26;158.43;;;49.83;;
11835;SDS011;5977;51.972;7.640;2022-12-08T12:38:00;158.97;;;49.90;;
11835;SDS011;5977;51.972;7.640;2022-12-08T12:40:52;159.27;;;50.20;;
11835;SDS011;5977;51.972;7.640;2022-12-08T12:43:28;159.27;;;50.13;;
11835;SDS011;5977;51.972;7.640;2022-12-08T12:52:00;158.43;;;49.70;;
11835;SDS011;5977;51.972;7.640;2022-12-08T12:54:28;158.77;;;49.90;;
11835;SDS011;5977;51.972;7.640;2022-12-08T12:57:13;159.00;;;50.07;;
11835;SDS011;5977;51.972;7.640;2022-12-08T12:59:47;159.10;;;50.07;;
11835;SDS011;5977;51.972;7.640;2022-12-08T13:02:36;158.93;;;50.00;;
11835;SDS011;5977;51.972;7.640;2022-12-08T13:05:07;159.10;;;49.97;;
11835;SDS011;5977;51.972;7.640;2022-12-08T13:07:42;158.97;;;50.07;;
11835;SDS011;5977;51.972;7.640;2022-12-08T13:10:15;159.30;;;50.00;;
11835;SDS011;5977;51.972;7.640;2022-12-08T13:13:00;160.13;;;50.27;;
11835;SDS011;5977;51.972;7.640;2022-12-08T13:15:34;159.60;;;50.10;;
11835;SDS011;5977;51.972;7.640;2022-12-08T13:18:06;159.80;;;50.27;;
11835;SDS011;5977;51.972;7.640;2022-12-08T13:20:46;160.00;;;50.47;;
11835;SDS011;5977;51.972;7.640;2022-12-08T13:23:24;160.13;;;50.37;;
11835;SDS011;5977;51.972;7.640;2022-12-08T13:26:11;159.33;;;50.07;;
11835;SDS011;5977;51.972;7.640;2022-12-08T13:29:12;159.87;;;50.30;;
11835;SDS011;5977;51.972;7.640;2022-12-08T13:31:45;160.50;;;50.57;;
11835;SDS011;5977;51.972;7.640;2022-12-08T13:34:21;159.77;;;50.10;;
11835;SDS011;5977;51.972;7.640;2022-12-08T13:36:59;159.90;;;50.27;;
11835;SDS011;5977;51.972;7.640;2022-12-08T13:39:34;160.37;;;50.50;;
11835;SDS011;5977;51.972;7.640;2022-12-08T13:42:12;160.63;;;50.60;;
11835;SDS011;5977;51.972;7.640;2022-12-08T13:44:49;159.97;;;50.27;;
11835;SDS011;5977;51.972;7.640;2022-12-08T13:47:43;159.83;;;50.17;;
11835;SDS011;5977;51.972;7.640;2022-12-08T13:50:33;159.17;;;49.97;;
11835;SDS011;5977;51.972;7.640;2022-12-08T13:53:26;160.03;;;50.40;;
11835;SDS011;5977;51.972;7.640;2022-12-08T13:56:17;160.07;;;50.17;;
11835;SDS011;5977;51.972;7.640;2022-12-08T13:59:08;159.87;;;50.37;;
11835;SDS011;5977;51.972;7.640;2022-12-08T14:01:50;160.23;;;50.40;;
11835;SDS011;5977;51.972;7.640;2022-12-08T14:04:19;160.43;;;50.50;;
11835;SDS011;5977;51.972;7.640;2022-12-08T14:07:08;160.37;;;50.50;;
11835;SDS011;5977;51.972;7.640;2022-12-08T14:09:38;160.40;;;50.37;;
11835;SDS011;5977;51.972;7.640;2022-12-08T14:12:07;160.97;;;50.70;;
11835;SDS011;5977;51.972;7.640;2022-12-08T14:14:44;160.77;;;50.73;;
11835;SDS011;5977;51.972;7.640;2022-12-08T14:17:31;160.17;;;50.37;;
11835;SDS011;5977;51.972;7.640;2022-12-08T14:20:00;160.60;;;50.47;;
11835;SDS011;5977;51.972;7.640;2022-12-08T14:22:31;161.13;;;50.60;;
11835;SDS011;5977;51.972;7.640;2022-12-08T14:25:00;160.37;;;50.50;;
11835;SDS011;5977;51.972;7.640;2022-12-08T14:27:31;159.83;;;50.23;;
11835;SDS011;5977;51.972;7.640;2022-12-08T14:30:01;159.20;;;50.07;;
11835;SDS011;5977;51.972;7.640;2022-12-08T14:32:36;160.20;;;50.40;;
11835;SDS011;5977;51.972;7.640;2022-12-08T14:35:11;159.73;;;50.07;;
11835;SDS011;5977;51.972;7.640;2022-12-08T14:37:45;159.47;;;50.27;;
11835;SDS011;5977;51.972;7.640;2022-12-08T14:40:18;160.03;;;50.20;;
11835;SDS011;5977;51.972;7.640;2022-12-08T14:42:50;159.73;;;50.13;;
11835;SDS011;5977;51.972;7.640;2022-12-08T14:45:19;159.83;;;50.30;;
11835;SDS011;5977;51.972;7.640;2022-12-08T14:47:48;159.87;;;50.30;;
11835;SDS011;5977;51.972;7.640;2022-12-08T14:50:35;158.63;;;49.83;;
11835;SDS011;5977;51.972;7.640;2022-12-08T14:53:09;158.47;;;49.67;;
11835;SDS011;5977;51.972;7.640;2022-12-08T14:55:39;158.60;;;49.80;;
11835;SDS011;5977;51.972;7.640;2022-12-08T14:58:13;158.90;;;49.93;;
11835;SDS011;5977;51.972;7.640;2022-12-08T15:00:44;158.87;;;49.93;;
11835;SDS011;5977;51.972;7.640;2022-12-08T15:03:15;158.63;;;49.77;;
11835;SDS011;5977;51.972;7.640;2022-12-08T15:05:44;158.57;;;49.83;;